createdAt,value
2023-04-12T00:00:28.322Z,25.95
2023-04-12T00:01:28.327Z,25.94
2023-04-12T00:02:28.430Z,25.94
2023-04-12T00:03:28.551Z,25.91
2023-04-12T00:04:28.602Z,25.94
2023-04-12T00:05:28.395Z,25.95
2023-04-12T00:06:28.411Z,25.94
2023-04-12T00:07:28.413Z,25.94
2023-04-12T00:08:28.437Z,25.94
2023-04-12T00:09:28.448Z,25.95
2023-04-12T00:10:28.466Z,25.94
2023-04-12T00:11:28.471Z,25.97
2023-04-12T00:12:28.505Z,25.94
2023-04-12T00:13:28.508Z,25.95
2023-04-12T00:14:28.521Z,25.92
2023-04-12T00:15:28.554Z,25.94
2023-04-12T00:16:28.599Z,25.92
2023-04-12T00:17:28.621Z,25.94
2023-04-12T00:18:28.593Z,25.95
2023-04-12T00:19:28.606Z,25.94
2023-04-12T00:20:28.626Z,25.94
2023-04-12T00:21:28.683Z,25.92
2023-04-12T00:22:28.668Z,25.92
2023-04-12T00:23:28.662Z,25.91
2023-04-12T00:24:28.679Z,25.91
2023-04-12T00:25:28.725Z,25.92
2023-04-12T00:26:28.727Z,25.94
2023-04-12T00:27:28.740Z,25.94
2023-04-12T00:28:28.763Z,25.92
2023-04-12T00:29:28.785Z,25.94
2023-04-12T00:30:28.850Z,25.91
2023-04-12T00:31:28.839Z,25.94
2023-04-12T00:32:28.846Z,25.94
2023-04-12T00:33:28.848Z,25.94
2023-04-12T00:34:28.856Z,25.92
2023-04-12T00:35:28.932Z,25.91
2023-04-12T00:36:28.892Z,25.92
2023-04-12T00:37:28.926Z,25.92
2023-04-12T00:38:28.923Z,25.92
2023-04-12T00:39:28.972Z,25.92
2023-04-12T00:40:28.971Z,25.91
2023-04-12T00:41:28.996Z,25.92
2023-04-12T00:42:29.081Z,25.89
2023-04-12T00:43:29.042Z,25.89
2023-04-12T00:44:29.051Z,25.95
2023-04-12T00:45:29.068Z,25.91
2023-04-12T00:46:29.126Z,25.91
2023-04-12T00:47:29.152Z,25.89
2023-04-12T00:48:29.109Z,25.92
2023-04-12T00:49:29.124Z,25.89
2023-04-12T00:50:29.168Z,25.91
2023-04-12T00:51:29.163Z,25.91
2023-04-12T00:52:29.174Z,25.91
2023-04-12T00:53:29.210Z,25.89
2023-04-12T00:54:29.200Z,25.91
2023-04-12T00:55:29.227Z,25.91
2023-04-12T00:56:29.269Z,25.91
2023-04-12T00:57:29.306Z,25.89
2023-04-12T00:58:29.339Z,25.91
2023-04-12T00:59:29.389Z,25.88
2023-04-12T01:00:29.458Z,25.91
2023-04-12T01:01:29.475Z,25.91
2023-04-12T01:02:29.756Z,25.89
2023-04-12T01:03:29.797Z,25.88
2023-04-12T01:04:29.596Z,25.89
2023-04-12T01:05:29.644Z,25.89
2023-04-12T01:06:29.758Z,25.88
2023-04-12T01:07:29.732Z,25.88
2023-04-12T01:08:29.769Z,25.89
2023-04-12T01:09:29.820Z,25.91
2023-04-12T01:10:29.873Z,25.89
2023-04-12T01:11:29.906Z,25.87
2023-04-12T01:12:29.957Z,25.88
2023-04-12T01:13:29.994Z,25.88
2023-04-12T01:14:30.011Z,25.89
2023-04-12T01:15:30.059Z,25.87
2023-04-12T01:16:30.065Z,25.88
2023-04-12T01:17:30.150Z,25.88
2023-04-12T01:18:30.060Z,25.88
2023-04-12T01:19:30.085Z,25.87
2023-04-12T01:20:30.098Z,25.87
2023-04-12T01:21:30.105Z,25.89
2023-04-12T01:22:30.121Z,25.91
2023-04-12T01:23:30.123Z,25.89
2023-04-12T01:24:30.134Z,25.88
2023-04-12T01:25:30.162Z,25.88
2023-04-12T01:26:30.197Z,25.87
2023-04-12T01:27:30.173Z,25.89
2023-04-12T01:28:30.186Z,25.88
2023-04-12T01:29:30.190Z,25.88
2023-04-12T01:30:30.228Z,25.89
2023-04-12T01:31:30.312Z,25.89
2023-04-12T01:32:30.371Z,25.85
2023-04-12T01:33:30.366Z,25.88
2023-04-12T01:34:30.409Z,25.88
2023-04-12T01:35:30.463Z,25.85
2023-04-12T01:36:30.504Z,25.87
2023-04-12T01:37:30.550Z,25.88
2023-04-12T01:38:30.588Z,25.87
2023-04-12T01:39:30.641Z,25.88
2023-04-12T01:40:30.725Z,25.89
2023-04-12T01:41:30.721Z,25.87
2023-04-12T01:42:30.786Z,25.84
2023-04-12T01:43:30.821Z,25.85
2023-04-12T01:44:30.880Z,25.88
2023-04-12T01:45:30.987Z,25.87
2023-04-12T01:46:30.977Z,25.87
2023-04-12T01:47:31.060Z,25.87
2023-04-12T01:48:31.065Z,25.87
2023-04-12T01:49:31.117Z,25.87
2023-04-12T01:50:31.160Z,25.87
2023-04-12T01:51:31.224Z,25.85
2023-04-12T01:52:31.273Z,25.87
2023-04-12T01:53:31.269Z,25.88
2023-04-12T01:54:31.269Z,25.85
2023-04-12T01:55:31.304Z,25.84
2023-04-12T01:56:31.311Z,25.87
2023-04-12T01:57:31.295Z,25.87
2023-04-12T01:58:31.311Z,25.85
2023-04-12T01:59:31.313Z,25.87
2023-04-12T02:00:31.324Z,25.87
2023-04-12T02:01:31.375Z,25.85
2023-04-12T02:02:31.465Z,25.88
2023-04-12T02:03:31.426Z,25.85
2023-04-12T02:04:31.351Z,25.84
2023-04-12T02:05:31.373Z,25.84
2023-04-12T02:06:31.400Z,25.85
2023-04-12T02:07:31.439Z,25.87
2023-04-12T02:08:31.504Z,25.85
2023-04-12T02:09:31.537Z,25.87
2023-04-12T02:10:31.597Z,25.85
2023-04-12T02:11:31.628Z,25.85
2023-04-12T02:12:31.687Z,25.84
2023-04-12T02:13:31.744Z,25.83
2023-04-12T02:14:31.771Z,25.84
2023-04-12T02:15:31.814Z,25.84
2023-04-12T02:16:31.891Z,25.84
2023-04-12T02:17:31.954Z,25.84
2023-04-12T02:18:31.946Z,25.84
2023-04-12T02:19:32.009Z,25.83
2023-04-12T02:20:32.055Z,25.85
2023-04-12T02:21:32.121Z,25.84
2023-04-12T02:22:32.140Z,25.83
2023-04-12T02:23:32.200Z,25.84
2023-04-12T02:24:32.259Z,25.83
2023-04-12T02:25:32.300Z,25.81
2023-04-12T02:26:32.362Z,25.84
2023-04-12T02:27:32.408Z,25.83
2023-04-12T02:28:32.450Z,25.83
2023-04-12T02:29:32.500Z,25.83
2023-04-12T02:30:32.599Z,25.80
2023-04-12T02:31:32.606Z,25.83
2023-04-12T02:32:32.673Z,25.84
2023-04-12T02:33:32.686Z,25.81
2023-04-12T02:34:32.741Z,25.84
2023-04-12T02:35:32.822Z,25.81
2023-04-12T02:36:32.847Z,25.83
2023-04-12T02:37:32.900Z,25.83
2023-04-12T02:38:32.959Z,25.83
2023-04-12T02:39:32.993Z,25.81
2023-04-12T02:40:33.041Z,25.83
2023-04-12T02:41:33.101Z,25.84
2023-04-12T02:42:33.133Z,25.85
2023-04-12T02:43:33.188Z,25.83
2023-04-12T02:44:33.179Z,25.81
2023-04-12T02:45:33.181Z,25.84
2023-04-12T02:46:33.240Z,25.84
2023-04-12T02:47:33.253Z,25.84
2023-04-12T02:48:33.231Z,25.81
2023-04-12T02:49:33.249Z,25.78
2023-04-12T02:50:33.283Z,25.76
2023-04-12T02:51:33.293Z,25.74
2023-04-12T02:52:33.320Z,25.66
2023-04-12T02:53:33.326Z,25.57
2023-04-12T02:54:33.413Z,25.52
2023-04-12T02:55:33.470Z,25.43
2023-04-12T02:56:33.489Z,25.28
2023-04-12T02:57:33.547Z,25.21
2023-04-12T02:58:33.607Z,25.11
2023-04-12T02:59:33.669Z,25.01
2023-04-12T03:00:33.765Z,24.97
2023-04-12T03:01:33.908Z,24.91
2023-04-12T03:02:34.012Z,24.84
2023-04-12T03:03:34.134Z,24.83
2023-04-12T03:04:34.152Z,24.81
2023-04-12T03:05:34.156Z,24.75
2023-04-12T03:06:34.229Z,24.73
2023-04-12T03:07:34.309Z,24.68
2023-04-12T03:08:34.401Z,24.62
2023-04-12T03:09:34.493Z,24.59
2023-04-12T03:10:34.576Z,24.60
2023-04-12T03:11:34.701Z,24.53
2023-04-12T03:12:34.799Z,24.53
2023-04-12T03:13:34.878Z,24.50
2023-04-12T03:14:34.962Z,24.49
2023-04-12T03:15:35.079Z,24.49
2023-04-12T03:16:35.145Z,24.43
2023-04-12T03:17:35.277Z,24.44
2023-04-12T03:18:35.296Z,24.40
2023-04-12T03:19:35.373Z,24.38
2023-04-12T03:20:35.445Z,24.35
2023-04-12T03:21:35.551Z,24.36
2023-04-12T03:22:35.595Z,24.33
2023-04-12T03:23:35.681Z,24.33
2023-04-12T03:24:35.776Z,24.30
2023-04-12T03:25:35.817Z,24.30
2023-04-12T03:26:35.868Z,24.26
2023-04-12T03:27:35.954Z,24.25
2023-04-12T03:28:35.964Z,24.25
2023-04-12T03:29:35.955Z,24.23
2023-04-12T03:30:36.043Z,24.22
2023-04-12T03:31:36.192Z,24.19
2023-04-12T03:32:36.112Z,24.18
2023-04-12T03:33:36.111Z,24.19
2023-04-12T03:34:36.138Z,24.21
2023-04-12T03:35:36.230Z,24.18
2023-04-12T03:36:36.194Z,24.18
2023-04-12T03:37:36.338Z,24.16
2023-04-12T03:38:36.252Z,24.12
2023-04-12T03:39:36.269Z,24.12
2023-04-12T03:40:36.311Z,24.11
2023-04-12T03:41:36.355Z,24.09
2023-04-12T03:42:36.417Z,24.09
2023-04-12T03:43:36.483Z,24.08
2023-04-12T03:44:36.574Z,24.08
2023-04-12T03:45:36.638Z,24.09
2023-04-12T03:46:36.760Z,24.07
2023-04-12T03:47:36.840Z,24.09
2023-04-12T03:48:36.887Z,24.08
2023-04-12T03:49:36.912Z,24.09
2023-04-12T03:50:36.942Z,24.08
2023-04-12T03:51:36.959Z,24.08
2023-04-12T03:52:37.017Z,24.08
2023-04-12T03:53:37.045Z,24.08
2023-04-12T03:54:37.061Z,24.12
2023-04-12T03:55:37.101Z,24.11
2023-04-12T03:56:37.130Z,24.15
2023-04-12T03:57:37.160Z,24.15
2023-04-12T03:58:37.227Z,24.16
2023-04-12T03:59:37.222Z,24.16
2023-04-12T04:00:37.247Z,24.16
2023-04-12T04:01:37.282Z,24.16
2023-04-12T04:02:37.477Z,24.19
2023-04-12T04:03:37.478Z,24.19
2023-04-12T04:04:37.611Z,24.21
2023-04-12T04:05:37.615Z,24.21
2023-04-12T04:06:37.725Z,24.16
2023-04-12T04:07:37.801Z,24.19
2023-04-12T04:08:37.899Z,24.19
2023-04-12T04:09:37.988Z,24.19
2023-04-12T04:10:38.044Z,24.21
2023-04-12T04:11:38.041Z,24.21
2023-04-12T04:12:38.079Z,24.19
2023-04-12T04:13:38.094Z,24.22
2023-04-12T04:14:38.101Z,24.13
2023-04-12T04:15:38.126Z,24.21
2023-04-12T04:16:38.209Z,24.21
2023-04-12T04:17:38.238Z,24.19
2023-04-12T04:18:38.198Z,24.21
2023-04-12T04:19:38.280Z,24.23
2023-04-12T04:20:38.238Z,24.22
2023-04-12T04:21:38.267Z,24.22
2023-04-12T04:22:38.294Z,24.21
2023-04-12T04:23:38.305Z,24.18
2023-04-12T04:24:38.319Z,24.18
2023-04-12T04:25:38.354Z,24.18
2023-04-12T04:26:38.392Z,24.16
2023-04-12T04:27:38.597Z,24.19
2023-04-12T04:28:38.469Z,24.22
2023-04-12T04:29:38.459Z,24.23
2023-04-12T04:30:38.497Z,24.26
2023-04-12T04:31:38.624Z,24.29
2023-04-12T04:32:38.735Z,24.32
2023-04-12T04:33:38.771Z,24.33
2023-04-12T04:34:38.862Z,24.35
2023-04-12T04:35:39.034Z,24.35
2023-04-12T04:36:39.047Z,24.36
2023-04-12T04:37:39.142Z,24.35
2023-04-12T04:38:39.251Z,24.36
2023-04-12T04:39:39.321Z,24.36
2023-04-12T04:40:39.416Z,24.33
2023-04-12T04:41:39.772Z,24.33
2023-04-12T04:42:39.642Z,24.36
2023-04-12T04:43:39.701Z,24.33
2023-04-12T04:44:39.804Z,24.33
2023-04-12T04:45:39.943Z,24.35
2023-04-12T04:46:39.982Z,24.30
2023-04-12T04:47:40.139Z,24.29
2023-04-12T04:48:40.165Z,24.28
2023-04-12T04:49:40.249Z,24.28
2023-04-12T04:50:40.309Z,24.29
2023-04-12T04:51:40.369Z,24.28
2023-04-12T04:52:40.454Z,24.28
2023-04-12T04:53:40.556Z,24.29
2023-04-12T04:54:40.586Z,24.30
2023-04-12T04:55:40.570Z,24.29
2023-04-12T04:56:40.597Z,24.30
2023-04-12T04:57:40.627Z,24.32
2023-04-12T04:58:40.648Z,24.30
2023-04-12T04:59:40.665Z,24.26
2023-04-12T05:00:40.711Z,24.30
2023-04-12T05:01:40.918Z,24.26
2023-04-12T05:02:40.921Z,24.23
2023-04-12T05:03:40.945Z,24.21
2023-04-12T05:04:40.899Z,24.18
2023-04-12T05:05:40.962Z,24.13
2023-04-12T05:06:41.017Z,24.09
2023-04-12T05:07:41.083Z,24.05
2023-04-12T05:08:41.181Z,24.05
2023-04-12T05:09:41.239Z,24.04
2023-04-12T05:10:41.285Z,24.00
2023-04-12T05:11:41.351Z,24.01
2023-04-12T05:12:41.445Z,24.02
2023-04-12T05:13:41.494Z,24.04
2023-04-12T05:14:47.156Z,24.04
2023-04-12T05:15:42.602Z,24.05
2023-04-12T05:16:41.656Z,24.07
2023-04-12T05:17:41.670Z,24.08
2023-04-12T05:18:41.677Z,24.09
2023-04-12T05:19:41.694Z,24.08
2023-04-12T05:20:41.716Z,24.08
2023-04-12T05:21:41.734Z,24.08
2023-04-12T05:22:41.764Z,24.09
2023-04-12T05:23:41.813Z,24.09
2023-04-12T05:24:41.825Z,24.08
2023-04-12T05:25:41.849Z,24.09
2023-04-12T05:26:41.862Z,24.11
2023-04-12T05:27:41.964Z,24.12
2023-04-12T05:28:41.919Z,24.15
2023-04-12T05:29:41.922Z,24.12
2023-04-12T05:30:42.061Z,24.16
2023-04-12T05:31:41.966Z,24.16
2023-04-12T05:32:42.044Z,24.18
2023-04-12T05:33:42.019Z,24.21
2023-04-12T05:34:42.047Z,24.21
2023-04-12T05:35:42.175Z,24.21
2023-04-12T05:36:42.228Z,24.19
2023-04-12T05:37:42.269Z,24.19
2023-04-12T05:38:42.313Z,24.18
2023-04-12T05:39:42.353Z,24.19
2023-04-12T05:40:42.428Z,24.25
2023-04-12T05:41:42.486Z,24.26
2023-04-12T05:42:42.553Z,24.29
2023-04-12T05:43:42.614Z,24.32
2023-04-12T05:44:42.692Z,24.32
2023-04-12T05:45:42.701Z,24.30
2023-04-12T05:46:42.799Z,24.36
2023-04-12T05:47:42.898Z,24.40
2023-04-12T05:48:42.814Z,24.42
2023-04-12T05:49:42.810Z,24.47
2023-04-12T05:50:42.895Z,24.50
2023-04-12T05:51:42.848Z,24.53
2023-04-12T05:52:42.905Z,24.57
2023-04-12T05:53:42.904Z,24.62
2023-04-12T05:54:42.912Z,24.62
2023-04-12T05:55:42.972Z,24.66
2023-04-12T05:56:42.984Z,24.70
2023-04-12T05:57:42.987Z,24.71
2023-04-12T05:58:43.045Z,24.75
2023-04-12T05:59:43.105Z,24.75
2023-04-12T06:00:43.195Z,24.78
2023-04-12T06:01:43.241Z,24.80
2023-04-12T06:02:43.456Z,24.80
2023-04-12T06:03:43.511Z,24.85
2023-04-12T06:04:50.036Z,24.85
2023-04-12T06:05:44.578Z,24.87
2023-04-12T06:06:43.465Z,24.88
2023-04-12T06:07:43.506Z,24.90
2023-04-12T06:08:43.500Z,24.92
2023-04-12T06:09:43.540Z,24.94
2023-04-12T06:10:43.573Z,24.95
2023-04-12T06:11:43.596Z,24.98
2023-04-12T06:12:43.608Z,24.98
2023-04-12T06:13:43.634Z,24.98
2023-04-12T06:14:43.659Z,24.97
2023-04-12T06:15:43.689Z,24.97
2023-04-12T06:16:43.689Z,24.92
2023-04-12T06:17:43.837Z,24.91
2023-04-12T06:18:43.741Z,24.91
2023-04-12T06:19:43.750Z,24.87
2023-04-12T06:20:43.776Z,24.84
2023-04-12T06:21:43.828Z,24.83
2023-04-12T06:22:43.829Z,24.77
2023-04-12T06:23:43.904Z,24.75
2023-04-12T06:24:43.878Z,24.73
2023-04-12T06:25:43.948Z,24.73
2023-04-12T06:26:43.926Z,24.67
2023-04-12T06:27:44.016Z,24.62
2023-04-12T06:28:44.000Z,24.64
2023-04-12T06:29:44.009Z,24.62
2023-04-12T06:30:44.032Z,24.57
2023-04-12T06:31:44.115Z,24.60
2023-04-12T06:32:44.108Z,24.59
2023-04-12T06:33:44.194Z,24.59
2023-04-12T06:34:44.275Z,24.59
2023-04-12T06:35:44.436Z,24.56
2023-04-12T06:36:44.424Z,24.40
2023-04-12T06:37:44.537Z,24.39
2023-04-12T06:38:44.626Z,24.42
2023-04-12T06:39:44.725Z,24.43
2023-04-12T06:40:44.829Z,24.46
2023-04-12T06:41:44.914Z,24.49
2023-04-12T06:42:44.986Z,24.53
2023-04-12T06:43:45.060Z,24.56
2023-04-12T06:44:45.137Z,24.63
2023-04-12T06:45:45.162Z,24.66
2023-04-12T06:46:45.229Z,24.70
2023-04-12T06:47:45.219Z,24.75
2023-04-12T06:48:45.292Z,24.78
2023-04-12T06:49:45.256Z,24.84
2023-04-12T06:50:45.265Z,24.85
2023-04-12T06:51:45.318Z,24.88
2023-04-12T06:52:45.310Z,24.91
2023-04-12T06:53:45.377Z,24.92
2023-04-12T06:54:45.339Z,24.98
2023-04-12T06:55:45.395Z,24.99
2023-04-12T06:56:45.398Z,25.02
2023-04-12T06:57:45.413Z,25.04
2023-04-12T06:58:45.466Z,25.08
2023-04-12T06:59:45.456Z,25.09
2023-04-12T07:00:45.515Z,25.11
2023-04-12T07:01:45.590Z,25.14
2023-04-12T07:02:45.752Z,25.15
2023-04-12T07:03:45.629Z,25.15
2023-04-12T07:04:45.598Z,25.16
2023-04-12T07:05:45.601Z,25.18
2023-04-12T07:06:45.627Z,25.18
2023-04-12T07:07:45.650Z,25.19
2023-04-12T07:08:45.723Z,25.19
2023-04-12T07:09:45.741Z,25.19
2023-04-12T07:10:45.838Z,25.21
2023-04-12T07:11:45.745Z,25.21
2023-04-12T07:12:45.839Z,25.25
2023-04-12T07:13:45.758Z,25.23
2023-04-12T07:14:45.834Z,25.22
2023-04-12T07:15:45.813Z,25.26
2023-04-12T07:16:45.875Z,25.23
2023-04-12T07:17:45.837Z,25.23
2023-04-12T07:18:45.825Z,25.23
2023-04-12T07:19:45.865Z,25.25
2023-04-12T07:20:45.877Z,25.26
2023-04-12T07:21:45.930Z,25.32
2023-04-12T07:22:45.930Z,25.29
2023-04-12T07:23:45.958Z,25.32
2023-04-12T07:24:45.974Z,25.32
2023-04-12T07:25:45.996Z,25.30
2023-04-12T07:26:46.157Z,25.30
2023-04-12T07:27:46.022Z,25.35
2023-04-12T07:28:46.023Z,25.33
2023-04-12T07:29:46.033Z,25.35
2023-04-12T07:30:46.050Z,25.36
2023-04-12T07:31:46.102Z,25.37
2023-04-12T07:32:46.254Z,25.36
2023-04-12T07:33:46.355Z,25.40
2023-04-12T07:34:46.151Z,25.40
2023-04-12T07:35:46.188Z,25.40
2023-04-12T07:36:46.187Z,25.16
2023-04-12T07:37:46.220Z,24.99
2023-04-12T07:38:46.231Z,24.78
2023-04-12T07:39:46.280Z,24.63
2023-04-12T07:40:49.251Z,24.40
2023-04-12T07:41:46.308Z,24.47
2023-04-12T07:42:46.322Z,24.12
2023-04-12T07:43:46.348Z,24.13
2023-04-12T07:44:46.363Z,23.97
2023-04-12T07:45:46.427Z,23.97
2023-04-12T07:46:46.411Z,23.91
2023-04-12T07:47:46.487Z,23.84
2023-04-12T07:48:46.459Z,23.64
2023-04-12T07:49:46.568Z,23.39
2023-04-12T07:50:46.520Z,23.39
2023-04-12T07:51:46.545Z,23.33
2023-04-12T07:52:46.595Z,23.26
2023-04-12T07:53:46.648Z,23.25
2023-04-12T07:54:46.751Z,23.23
2023-04-12T07:55:46.665Z,23.09
2023-04-12T07:56:46.702Z,22.95
2023-04-12T07:57:46.875Z,22.95
2023-04-12T07:58:46.767Z,22.86
2023-04-12T07:59:46.825Z,22.88
2023-04-12T08:00:47.003Z,22.81
2023-04-12T08:01:46.895Z,22.86
2023-04-12T08:02:47.096Z,22.90
2023-04-12T08:03:47.081Z,22.81
2023-04-12T08:04:46.972Z,22.83
2023-04-12T08:05:46.986Z,22.84
2023-04-12T08:06:46.996Z,22.63
2023-04-12T08:07:47.028Z,22.50
2023-04-12T08:08:47.050Z,22.46
2023-04-12T08:09:47.113Z,22.28
2023-04-12T08:10:47.144Z,22.35
2023-04-12T08:11:47.209Z,22.34
2023-04-12T08:12:47.195Z,22.18
2023-04-12T08:13:47.236Z,22.20
2023-04-12T08:14:47.316Z,22.08
2023-04-12T08:15:47.778Z,21.92
2023-04-12T08:16:47.322Z,21.84
2023-04-12T08:17:47.438Z,21.54
2023-04-12T08:18:47.386Z,21.43
2023-04-12T08:19:47.453Z,21.33
2023-04-12T08:20:47.468Z,21.35
2023-04-12T08:21:47.502Z,21.11
2023-04-12T08:22:47.531Z,21.12
2023-04-12T08:23:47.588Z,21.05
2023-04-12T08:24:47.614Z,21.01
2023-04-12T08:25:47.658Z,21.06
2023-04-12T08:26:47.678Z,20.98
2023-04-12T08:27:47.717Z,21.02
2023-04-12T08:28:47.829Z,21.13
2023-04-12T08:29:47.901Z,21.06
2023-04-12T08:30:47.834Z,21.13
2023-04-12T08:31:47.872Z,21.05
2023-04-12T08:32:47.959Z,21.05
2023-04-12T08:33:47.948Z,21.22
2023-04-12T08:34:47.995Z,20.98
2023-04-12T08:35:48.069Z,21.05
2023-04-12T08:36:48.083Z,21.13
2023-04-12T08:37:48.107Z,21.09
2023-04-12T08:38:48.146Z,21.04
2023-04-12T08:39:48.200Z,21.11
2023-04-12T08:40:48.224Z,21.19
2023-04-12T08:41:48.269Z,21.21
2023-04-12T08:42:48.304Z,21.22
2023-04-12T08:43:48.335Z,21.29
2023-04-12T08:44:48.408Z,21.21
2023-04-12T08:45:48.415Z,21.18
2023-04-12T08:46:48.532Z,21.23
2023-04-12T08:47:48.562Z,21.16
2023-04-12T08:48:48.660Z,21.16
2023-04-12T08:49:48.595Z,20.99
2023-04-12T08:50:50.622Z,20.97
2023-04-12T08:51:48.662Z,20.71
2023-04-12T08:52:48.719Z,20.84
2023-04-12T08:53:48.741Z,20.66
2023-04-12T08:54:48.792Z,20.62
2023-04-12T08:55:48.820Z,20.50
2023-04-12T08:56:48.913Z,20.49
2023-04-12T08:57:49.005Z,20.62
2023-04-12T08:58:49.177Z,20.81
2023-04-12T08:59:49.187Z,20.99
2023-04-12T09:00:49.160Z,21.18
2023-04-12T09:01:49.269Z,21.38
2023-04-12T09:02:49.482Z,21.57
2023-04-12T09:03:49.354Z,21.76
2023-04-12T09:04:49.499Z,21.92
2023-04-12T09:05:49.372Z,22.09
2023-04-12T09:06:49.372Z,22.25
2023-04-12T09:07:49.428Z,22.39
2023-04-12T09:08:49.439Z,22.53
2023-04-12T09:09:49.504Z,22.67
2023-04-12T09:10:49.503Z,22.80
2023-04-12T09:11:49.531Z,22.91
2023-04-12T09:12:51.053Z,23.01
2023-04-12T09:13:49.592Z,23.15
2023-04-12T09:14:49.631Z,23.23
2023-04-12T09:15:49.685Z,23.34
2023-04-12T09:16:49.734Z,23.43
2023-04-12T09:17:49.809Z,23.52
2023-04-12T09:18:49.758Z,23.60
2023-04-12T09:19:49.782Z,23.66
2023-04-12T09:20:49.799Z,23.77
2023-04-12T09:21:49.820Z,23.87
2023-04-12T09:22:49.849Z,23.91
2023-04-12T09:23:49.890Z,24.00
2023-04-12T09:24:49.902Z,24.08
2023-04-12T09:25:49.965Z,24.12
2023-04-12T09:26:49.955Z,24.18
2023-04-12T09:27:50.016Z,24.25
2023-04-12T09:28:50.062Z,24.28
2023-04-12T09:29:50.039Z,24.32
2023-04-12T09:30:50.064Z,24.39
2023-04-12T09:31:50.117Z,24.42
2023-04-12T09:32:50.184Z,24.47
2023-04-12T09:33:50.255Z,24.55
2023-04-12T09:34:50.200Z,24.62
2023-04-12T09:35:50.316Z,24.64
2023-04-12T09:36:50.209Z,24.64
2023-04-12T09:37:50.226Z,24.73
2023-04-12T09:38:50.288Z,24.78
2023-04-12T09:39:50.276Z,24.81
2023-04-12T09:40:50.359Z,24.85
2023-04-12T09:41:50.331Z,24.91
2023-04-12T09:42:50.354Z,24.95
2023-04-12T09:43:50.424Z,25.02
2023-04-12T09:44:50.431Z,25.04
2023-04-12T09:45:50.467Z,25.08
2023-04-12T09:46:50.571Z,25.09
2023-04-12T09:47:50.515Z,25.11
2023-04-12T09:48:50.456Z,25.14
2023-04-12T09:49:50.601Z,25.14
2023-04-12T09:50:50.705Z,25.19
2023-04-12T09:51:50.581Z,25.18
2023-04-12T09:52:50.683Z,25.21
2023-04-12T09:53:50.576Z,25.22
2023-04-12T09:54:50.587Z,25.22
2023-04-12T09:55:50.666Z,25.23
2023-04-12T09:56:50.640Z,25.23
2023-04-12T09:57:50.634Z,25.23
2023-04-12T09:58:50.665Z,25.23
2023-04-12T09:59:50.702Z,25.25
2023-04-12T10:00:50.691Z,25.23
2023-04-12T10:01:50.788Z,25.25
2023-04-12T10:02:51.648Z,25.28
2023-04-12T10:03:50.848Z,25.26
2023-04-12T10:04:50.964Z,25.25
2023-04-12T10:05:50.809Z,25.28
2023-04-12T10:06:50.834Z,25.29
2023-04-12T10:07:50.889Z,25.28
2023-04-12T10:08:50.870Z,25.29
2023-04-12T10:09:50.889Z,25.29
2023-04-12T10:10:50.933Z,25.30
2023-04-12T10:11:50.909Z,25.30
2023-04-12T10:12:50.988Z,25.28
2023-04-12T10:13:50.961Z,25.29
2023-04-12T10:14:50.987Z,25.30
2023-04-12T10:15:51.179Z,25.30
2023-04-12T10:16:51.109Z,25.29
2023-04-12T10:17:51.068Z,25.32
2023-04-12T10:18:51.046Z,25.33
2023-04-12T10:19:51.116Z,25.30
2023-04-12T10:20:51.109Z,25.32
2023-04-12T10:21:51.094Z,25.35
2023-04-12T10:22:51.161Z,25.35
2023-04-12T10:23:51.143Z,25.35
2023-04-12T10:24:51.156Z,25.35
2023-04-12T10:25:52.487Z,25.37
2023-04-12T10:26:51.214Z,25.35
2023-04-12T10:27:51.254Z,25.39
2023-04-12T10:28:51.258Z,25.37
2023-04-12T10:29:51.268Z,25.39
2023-04-12T10:30:51.297Z,25.37
2023-04-12T10:31:51.343Z,25.37
2023-04-12T10:32:51.379Z,25.40
2023-04-12T10:33:51.386Z,25.40
2023-04-12T10:34:51.367Z,25.39
2023-04-12T10:35:51.442Z,25.40
2023-04-12T10:36:51.414Z,25.43
2023-04-12T10:37:51.550Z,25.42
2023-04-12T10:38:51.465Z,25.40
2023-04-12T10:39:51.504Z,25.40
2023-04-12T10:40:51.561Z,25.44
2023-04-12T10:41:51.637Z,25.44
2023-04-12T10:42:51.654Z,25.43
2023-04-12T10:43:51.717Z,25.47
2023-04-12T10:44:51.721Z,25.46
2023-04-12T10:45:51.735Z,25.47
2023-04-12T10:46:51.873Z,25.49
2023-04-12T10:47:51.737Z,25.52
2023-04-12T10:48:51.762Z,25.52
2023-04-12T10:49:51.778Z,25.52
2023-04-12T10:50:51.782Z,25.52
2023-04-12T10:51:51.828Z,25.50
2023-04-12T10:52:51.913Z,25.54
2023-04-12T10:53:52.000Z,25.54
2023-04-12T10:54:52.035Z,25.56
2023-04-12T10:55:52.089Z,25.57
2023-04-12T10:56:52.216Z,25.57
2023-04-12T10:57:52.195Z,25.59
2023-04-12T10:58:52.388Z,25.61
2023-04-12T10:59:52.258Z,25.60
2023-04-12T11:00:52.289Z,25.60
2023-04-12T11:01:52.506Z,25.61
2023-04-12T11:02:52.350Z,25.64
2023-04-12T11:03:52.432Z,25.69
2023-04-12T11:04:52.475Z,25.67
2023-04-12T11:05:52.416Z,25.66
2023-04-12T11:06:53.066Z,25.71
2023-04-12T11:07:52.595Z,25.70
2023-04-12T11:08:52.641Z,25.70
2023-04-12T11:09:52.735Z,25.69
2023-04-12T11:10:52.819Z,25.71
2023-04-12T11:11:52.924Z,25.71
2023-04-12T11:12:52.963Z,25.73
2023-04-12T11:13:53.103Z,25.74
2023-04-12T11:14:53.123Z,25.73
2023-04-12T11:15:53.180Z,25.76
2023-04-12T11:16:53.183Z,25.78
2023-04-12T11:17:53.211Z,25.83
2023-04-12T11:18:53.185Z,25.80
2023-04-12T11:19:53.196Z,25.81
2023-04-12T11:20:53.216Z,25.84
2023-04-12T11:21:53.995Z,25.85
2023-04-12T11:22:53.259Z,25.85
2023-04-12T11:23:53.242Z,25.87
2023-04-12T11:24:53.292Z,25.87
2023-04-12T11:25:53.376Z,25.87
2023-04-12T11:26:53.438Z,25.85
2023-04-12T11:27:53.515Z,25.88
2023-04-12T11:28:53.570Z,25.88
2023-04-12T11:29:53.721Z,25.88
2023-04-12T11:30:53.713Z,25.89
2023-04-12T11:31:53.833Z,25.89
2023-04-12T11:32:53.873Z,25.92
2023-04-12T11:33:53.787Z,25.92
2023-04-12T11:34:53.821Z,25.91
2023-04-12T11:35:53.812Z,25.91
2023-04-12T11:36:53.825Z,25.91
2023-04-12T11:37:53.843Z,25.91
2023-04-12T11:38:53.820Z,25.94
2023-04-12T11:39:53.846Z,25.92
2023-04-12T11:40:53.848Z,25.92
2023-04-12T11:41:53.886Z,25.92
2023-04-12T11:42:53.903Z,25.92
2023-04-12T11:43:53.964Z,25.91
2023-04-12T11:44:57.653Z,25.92
2023-04-12T11:45:55.065Z,25.92
2023-04-12T11:46:54.041Z,25.94
2023-04-12T11:47:54.089Z,25.95
2023-04-12T11:48:54.098Z,25.92
2023-04-12T11:49:54.078Z,25.94
2023-04-12T11:51:07.545Z,25.95
2023-04-12T11:51:55.091Z,25.98
2023-04-12T11:52:54.096Z,25.97
2023-04-12T11:53:54.116Z,25.99
2023-04-12T11:54:54.115Z,26.01
2023-04-12T11:55:54.139Z,26.02
2023-04-12T11:56:54.176Z,26.01
2023-04-12T11:57:54.158Z,26.02
2023-04-12T11:58:54.181Z,26.05
2023-04-12T11:59:54.164Z,26.05
2023-04-12T12:00:54.229Z,26.04
2023-04-12T12:01:54.315Z,26.05
2023-04-12T12:03:06.870Z,26.05
2023-04-12T12:03:55.766Z,26.05
2023-04-12T12:04:54.439Z,26.08
2023-04-12T12:05:54.609Z,26.09
2023-04-12T12:06:54.866Z,26.06
2023-04-12T12:07:54.359Z,26.08
2023-04-12T12:08:54.403Z,26.09
2023-04-12T12:09:54.475Z,26.12
2023-04-12T12:11:06.301Z,26.12
2023-04-12T12:11:55.468Z,26.12
2023-04-12T12:12:54.430Z,26.12
2023-04-12T12:13:54.431Z,26.11
2023-04-12T12:14:54.444Z,26.11
2023-04-12T12:15:54.490Z,26.12
2023-04-12T12:16:54.484Z,26.14
2023-04-12T12:17:54.526Z,26.14
2023-04-12T12:18:54.513Z,26.15
2023-04-12T12:19:54.505Z,26.15
2023-04-12T12:20:54.517Z,26.19
2023-04-12T12:21:54.520Z,26.14
2023-04-12T12:22:54.530Z,26.16
2023-04-12T12:23:54.563Z,26.18
2023-04-12T12:24:54.580Z,26.18
2023-04-12T12:26:02.924Z,26.18
2023-04-12T12:26:55.575Z,26.18
2023-04-12T12:27:54.627Z,26.19
2023-04-12T12:28:54.601Z,26.21
2023-04-12T12:29:54.703Z,26.22
2023-04-12T12:30:54.679Z,26.21
2023-04-12T12:31:54.748Z,26.18
2023-04-12T12:32:54.791Z,26.18
2023-04-12T12:33:54.646Z,26.21
2023-04-12T12:34:54.733Z,26.22
2023-04-12T12:35:54.657Z,26.21
2023-04-12T12:36:54.685Z,26.22
2023-04-12T12:37:54.691Z,26.28
2023-04-12T12:38:54.693Z,26.32
2023-04-12T12:39:54.706Z,26.36
2023-04-12T12:40:54.713Z,26.36
2023-04-12T12:41:54.718Z,26.42
2023-04-12T12:42:54.757Z,26.44
2023-04-12T12:43:54.721Z,26.46
2023-04-12T12:44:54.731Z,26.49
2023-04-12T12:45:54.745Z,26.50
2023-04-12T12:47:00.817Z,26.54
2023-04-12T12:47:55.856Z,26.54
2023-04-12T12:48:54.747Z,26.56
2023-04-12T12:49:54.748Z,26.56
2023-04-12T12:50:54.762Z,26.59
2023-04-12T12:51:54.774Z,26.61
2023-04-12T12:52:54.811Z,26.60